Time;durP1;ratioP1;P1;durP2;ratioP2;P2;SDS_P1;SDS_P2;PMS_P1;PMS_P2;Temp;Humidity;BMP_temperature;BMP_pressure;BME280_temperature;BME280_humidity;BME280_pressure;Samples;Min_cycle;Max_cycle;Signal;HPM_P1;HPM_P2
2023/08/10 00:01:19;;;;;;;2.47;0.70;;;;;;;;;;5064312;28;20028;-62
2023/08/10 00:03:44;;;;;;;4.13;0.80;;;;;;;;;;5065709;28;20361;-63
2023/08/10 00:06:10;;;;;;;1.48;0.70;;;;;;;;;;5065493;28;20111;-62
2023/08/10 00:08:36;;;;;;;1.38;0.80;;;;;;;;;;5065788;28;20579;-62
2023/08/10 00:11:01;;;;;;;1.98;0.73;;;;;;;;;;5065114;28;20033;-62
2023/08/10 00:13:26;;;;;;;3.03;0.67;;;;;;;;;;5065176;28;20033;-62
2023/08/10 00:15:52;;;;;;;1.63;0.70;;;;;;;;;;5064549;28;20320;-61
2023/08/10 00:18:17;;;;;;;1.27;0.68;;;;;;;;;;5065798;28;20036;-62
2023/08/10 00:20:42;;;;;;;1.00;0.67;;;;;;;;;;5065445;28;20031;-62
2023/08/10 00:23:07;;;;;;;1.37;0.60;;;;;;;;;;5065323;28;20043;-63
2023/08/10 00:25:33;;;;;;;1.10;0.70;;;;;;;;;;5065664;28;20740;-61
2023/08/10 00:27:58;;;;;;;2.03;0.60;;;;;;;;;;5065729;28;20278;-61
2023/08/10 00:30:23;;;;;;;0.95;0.60;;;;;;;;;;5060833;28;20482;-64
2023/08/10 00:32:48;;;;;;;1.20;0.50;;;;;;;;;;5065509;28;20362;-63
2023/08/10 00:35:14;;;;;;;1.63;0.87;;;;;;;;;;5065425;28;20044;-63
2023/08/10 00:37:39;;;;;;;1.45;0.63;;;;;;;;;;5065696;28;20039;-62
2023/08/10 00:40:05;;;;;;;6.20;0.80;;;;;;;;;;5064730;28;20139;-62
2023/08/10 00:42:30;;;;;;;1.45;0.68;;;;;;;;;;5064471;28;20063;-62
2023/08/10 00:44:55;;;;;;;2.17;0.85;;;;;;;;;;5046443;28;20033;-62
2023/08/10 00:47:21;;;;;;;2.23;0.70;;;;;;;;;;5065294;28;20029;-61
2023/08/10 00:49:46;;;;;;;0.80;0.60;;;;;;;;;;5064675;28;20203;-61
2023/08/10 00:52:11;;;;;;;2.50;0.60;;;;;;;;;;5064027;28;20099;-62
2023/08/10 00:54:36;;;;;;;2.03;0.67;;;;;;;;;;5065092;28;20036;-62
2023/08/10 00:57:02;;;;;;;2.20;0.60;;;;;;;;;;5047198;28;20613;-63
2023/08/10 00:59:27;;;;;;;1.23;0.50;;;;;;;;;;5046042;28;20479;-62
2023/08/10 01:01:52;;;;;;;1.65;0.60;;;;;;;;;;5064168;28;20448;-62
2023/08/10 01:04:17;;;;;;;1.10;0.50;;;;;;;;;;5041358;28;20024;-62
2023/08/10 01:06:43;;;;;;;1.00;0.70;;;;;;;;;;5065055;28;20719;-62
2023/08/10 01:09:17;;;;;;;1.43;0.70;;;;;;;;;;5068093;28;20548;-62
2023/08/10 01:11:44;;;;;;;1.15;0.70;;;;;;;;;;5051052;28;20032;-63
2023/08/10 01:14:15;;;;;;;1.05;0.60;;;;;;;;;;5046952;28;20036;-61
2023/08/10 01:16:41;;;;;;;1.10;0.70;;;;;;;;;;5065265;28;20035;-62
2023/08/10 01:19:18;;;;;;;1.35;0.60;;;;;;;;;;5046883;28;20047;-62
2023/08/10 01:21:53;;;;;;;1.92;0.60;;;;;;;;;;5047120;28;20040;-63
2023/08/10 01:24:28;;;;;;;1.20;0.70;;;;;;;;;;5065470;28;20036;-62
2023/08/10 01:26:55;;;;;;;1.70;0.70;;;;;;;;;;5064956;28;20040;-62
2023/08/10 01:29:20;;;;;;;1.83;0.60;;;;;;;;;;5063017;28;20061;-61
2023/08/10 01:31:46;;;;;;;0.80;0.57;;;;;;;;;;5046340;28;20451;-62
2023/08/10 01:34:11;;;;;;;1.20;0.80;;;;;;;;;;5064540;28;20033;-62
2023/08/10 01:36:36;;;;;;;1.53;0.77;;;;;;;;;;5046194;28;20043;-62
2023/08/10 01:39:03;;;;;;;1.57;0.80;;;;;;;;;;5064345;28;20282;-61
2023/08/10 01:41:28;;;;;;;1.35;0.77;;;;;;;;;;5064140;28;20043;-61
2023/08/10 01:43:53;;;;;;;2.10;0.57;;;;;;;;;;5046313;28;20116;-62
2023/08/10 01:46:18;;;;;;;2.10;0.80;;;;;;;;;;5045872;28;20060;-62
2023/08/10 01:48:43;;;;;;;1.03;0.60;;;;;;;;;;5046722;28;20332;-61
2023/08/10 01:51:09;;;;;;;1.27;0.77;;;;;;;;;;5063727;28;20274;-61
2023/08/10 01:53:35;;;;;;;1.63;0.70;;;;;;;;;;5064117;28;20765;-63
2023/08/10 01:56:00;;;;;;;1.40;0.65;;;;;;;;;;5049600;28;20306;-63
2023/08/10 01:58:25;;;;;;;0.95;0.50;;;;;;;;;;5068224;28;20180;-60
2023/08/10 02:00:51;;;;;;;2.37;0.80;;;;;;;;;;5049894;28;20307;-61
2023/08/10 02:03:16;;;;;;;1.80;0.80;;;;;;;;;;5066921;28;20287;-63
2023/08/10 02:05:42;;;;;;;2.58;0.93;;;;;;;;;;5067766;28;20051;-61
2023/08/10 02:08:07;;;;;;;2.92;0.80;;;;;;;;;;5067877;28;20057;-61
2023/08/10 02:10:33;;;;;;;2.00;0.75;;;;;;;;;;5067438;28;20020;-61
2023/08/10 02:12:58;;;;;;;2.15;0.80;;;;;;;;;;5067448;28;20077;-63
2023/08/10 02:15:23;;;;;;;1.70;0.70;;;;;;;;;;5067841;28;20021;-62
2023/08/10 02:17:49;;;;;;;2.17;0.65;;;;;;;;;;5068285;28;20016;-64
2023/08/10 02:20:14;;;;;;;2.20;0.63;;;;;;;;;;5067318;28;20021;-61
2023/08/10 02:22:40;;;;;;;1.13;0.67;;;;;;;;;;5067578;28;20481;-62
2023/08/10 02:25:05;;;;;;;2.08;0.60;;;;;;;;;;5067330;28;20431;-64
2023/08/10 02:27:30;;;;;;;1.98;0.90;;;;;;;;;;5068252;28;20068;-61
2023/08/10 02:29:55;;;;;;;1.73;0.80;;;;;;;;;;5045761;28;20012;-61
2023/08/10 02:32:21;;;;;;;1.07;0.80;;;;;;;;;;5067331;28;20383;-62
2023/08/10 02:34:46;;;;;;;2.57;0.80;;;;;;;;;;5067372;28;20254;-62
2023/08/10 02:37:11;;;;;;;2.10;1.03;;;;;;;;;;5067388;28;20035;-63
2023/08/10 02:39:36;;;;;;;2.00;1.05;;;;;;;;;;5066967;28;20266;-63
2023/08/10 02:42:02;;;;;;;2.37;0.70;;;;;;;;;;5067610;28;20012;-62
2023/08/10 02:44:27;;;;;;;2.05;0.70;;;;;;;;;;5071333;28;20621;-63
2023/08/10 02:46:53;;;;;;;1.30;0.70;;;;;;;;;;5067264;28;20481;-63
2023/08/10 02:49:18;;;;;;;1.55;0.90;;;;;;;;;;5067110;28;20282;-63
2023/08/10 02:51:43;;;;;;;1.30;0.60;;;;;;;;;;5048986;28;20467;-62
2023/08/10 02:54:08;;;;;;;1.97;0.80;;;;;;;;;;5066175;28;20702;-63
2023/08/10 02:56:33;;;;;;;4.30;0.90;;;;;;;;;;5066932;28;20481;-62
2023/08/10 02:58:59;;;;;;;2.03;0.85;;;;;;;;;;5066938;28;20247;-63
2023/08/10 03:01:24;;;;;;;2.40;0.97;;;;;;;;;;5066560;28;20462;-63
2023/08/10 03:03:49;;;;;;;2.60;0.93;;;;;;;;;;5065738;28;20511;-64
2023/08/10 03:06:15;;;;;;;4.73;1.17;;;;;;;;;;5065090;28;20375;-62
2023/08/10 03:08:40;;;;;;;2.97;1.02;;;;;;;;;;5067112;28;20258;-61
2023/08/10 03:11:05;;;;;;;2.53;1.03;;;;;;;;;;5066630;28;20016;-62
2023/08/10 03:13:31;;;;;;;3.47;1.35;;;;;;;;;;5048671;28;20090;-61
2023/08/10 03:15:56;;;;;;;2.67;1.10;;;;;;;;;;5066700;28;20013;-61
2023/08/10 03:18:21;;;;;;;4.20;1.13;;;;;;;;;;5066575;28;20254;-61
2023/08/10 03:20:47;;;;;;;3.83;1.30;;;;;;;;;;5065929;28;20016;-62
2023/08/10 03:23:12;;;;;;;5.33;1.30;;;;;;;;;;5066380;28;20077;-62
2023/08/10 03:25:37;;;;;;;2.22;1.08;;;;;;;;;;5066447;28;20618;-63
2023/08/10 03:28:02;;;;;;;2.13;1.20;;;;;;;;;;5066758;28;20019;-63
2023/08/10 03:30:28;;;;;;;2.80;1.25;;;;;;;;;;5054039;28;20017;-63
2023/08/10 03:32:53;;;;;;;3.33;1.25;;;;;;;;;;5066420;28;20034;-63
2023/08/10 03:35:18;;;;;;;1.95;1.20;;;;;;;;;;5073805;28;20065;-62
2023/08/10 03:37:43;;;;;;;2.83;1.20;;;;;;;;;;5066235;28;20016;-61
2023/08/10 03:40:09;;;;;;;2.53;1.30;;;;;;;;;;5066055;28;20262;-61
2023/08/10 03:42:34;;;;;;;2.80;1.20;;;;;;;;;;5066136;28;20026;-61
2023/08/10 03:45:00;;;;;;;2.50;1.27;;;;;;;;;;5066092;28;20013;-66
2023/08/10 03:47:25;;;;;;;3.25;1.20;;;;;;;;;;5065932;28;20307;-64
2023/08/10 03:49:50;;;;;;;2.97;1.30;;;;;;;;;;5071776;28;20341;-61
2023/08/10 03:52:15;;;;;;;3.28;1.20;;;;;;;;;;5065803;28;20030;-62
2023/08/10 03:54:41;;;;;;;2.33;1.10;;;;;;;;;;5065556;28;20025;-63
2023/08/10 03:57:06;;;;;;;3.33;1.23;;;;;;;;;;5065658;28;20270;-62
2023/08/10 03:59:31;;;;;;;2.90;1.40;;;;;;;;;;5066039;28;20024;-63
2023/08/10 04:01:56;;;;;;;3.17;1.20;;;;;;;;;;5064941;28;20023;-61
2023/08/10 04:04:21;;;;;;;2.17;1.30;;;;;;;;;;5045617;28;20024;-63
2023/08/10 04:06:47;;;;;;;2.65;1.20;;;;;;;;;;5064883;28;21282;-62
2023/08/10 04:09:12;;;;;;;2.00;1.20;;;;;;;;;;5078383;28;20042;-63
2023/08/10 04:11:37;;;;;;;2.60;1.20;;;;;;;;;;5071720;28;20016;-62
2023/08/10 04:14:02;;;;;;;3.90;1.17;;;;;;;;;;5065170;28;20013;-63
2023/08/10 04:16:28;;;;;;;2.50;1.20;;;;;;;;;;5065916;28;20731;-63
2023/08/10 04:18:53;;;;;;;1.92;1.20;;;;;;;;;;5065003;28;20063;-63
2023/08/10 04:21:18;;;;;;;3.42;1.42;;;;;;;;;;5047111;28;20075;-63
2023/08/10 04:23:43;;;;;;;5.03;1.53;;;;;;;;;;5064601;28;20023;-63
2023/08/10 04:26:09;;;;;;;2.60;1.30;;;;;;;;;;5064449;28;20041;-62
2023/08/10 04:28:34;;;;;;;2.55;1.30;;;;;;;;;;5061215;28;20100;-62
2023/08/10 04:30:59;;;;;;;2.63;1.50;;;;;;;;;;5051791;28;20032;-62
2023/08/10 04:33:24;;;;;;;2.42;1.23;;;;;;;;;;5046249;28;20681;-63
2023/08/10 04:35:50;;;;;;;3.47;1.30;;;;;;;;;;5064362;28;20060;-62
2023/08/10 04:38:15;;;;;;;2.58;1.33;;;;;;;;;;5065529;28;20044;-63
2023/08/10 04:40:41;;;;;;;4.60;1.20;;;;;;;;;;5046777;28;20055;-63
2023/08/10 04:43:06;;;;;;;3.33;1.42;;;;;;;;;;5064184;28;20029;-64
2023/08/10 04:45:31;;;;;;;4.20;1.50;;;;;;;;;;5030097;28;20431;-62
2023/08/10 04:47:57;;;;;;;2.77;1.53;;;;;;;;;;5064647;28;20275;-62
2023/08/10 04:50:22;;;;;;;2.85;1.55;;;;;;;;;;5046745;28;20670;-62
2023/08/10 04:52:47;;;;;;;3.77;1.50;;;;;;;;;;5064512;28;20029;-63
2023/08/10 04:55:12;;;;;;;4.03;1.60;;;;;;;;;;5064753;28;20028;-62
2023/08/10 04:57:38;;;;;;;3.58;1.80;;;;;;;;;;5065251;28;20317;-64
2023/08/10 05:00:13;;;;;;;3.55;1.70;;;;;;;;;;5063899;28;20044;-63
2023/08/10 05:02:38;;;;;;;3.70;1.60;;;;;;;;;;5064336;28;20029;-65
2023/08/10 05:05:03;;;;;;;2.70;1.60;;;;;;;;;;5063505;28;20036;-64
2023/08/10 05:07:28;;;;;;;3.38;1.65;;;;;;;;;;5063633;28;20032;-62
2023/08/10 05:09:54;;;;;;;4.37;1.90;;;;;;;;;;5064800;28;20107;-63
2023/08/10 05:12:19;;;;;;;4.80;2.07;;;;;;;;;;5064298;28;20029;-62
2023/08/10 05:14:44;;;;;;;3.73;1.60;;;;;;;;;;5064163;28;20035;-62
2023/08/10 05:17:10;;;;;;;2.87;1.80;;;;;;;;;;5063767;28;20041;-64
2023/08/10 05:19:35;;;;;;;7.35;2.22;;;;;;;;;;5071704;28;20043;-63
2023/08/10 05:22:01;;;;;;;4.25;2.10;;;;;;;;;;5048176;28;20048;-61
2023/08/10 05:24:26;;;;;;;4.22;2.30;;;;;;;;;;5048538;28;20067;-62
2023/08/10 05:26:51;;;;;;;5.40;2.13;;;;;;;;;;5048102;28;20045;-63
2023/08/10 05:29:17;;;;;;;4.50;2.15;;;;;;;;;;5052628;28;20058;-61
2023/08/10 05:31:42;;;;;;;3.83;2.07;;;;;;;;;;5063203;28;20111;-62
2023/08/10 05:34:07;;;;;;;4.07;2.20;;;;;;;;;;5068591;28;20075;-61
2023/08/10 05:36:32;;;;;;;5.00;2.27;;;;;;;;;;5080435;28;20874;-62
2023/08/10 05:38:58;;;;;;;4.80;2.27;;;;;;;;;;5065093;28;20047;-61
2023/08/10 05:41:23;;;;;;;5.83;2.40;;;;;;;;;;5065537;28;20025;-65
2023/08/10 05:43:49;;;;;;;4.37;2.10;;;;;;;;;;5066477;28;20039;-60
2023/08/10 05:46:14;;;;;;;3.25;1.92;;;;;;;;;;5065396;28;20048;-62
2023/08/10 05:48:40;;;;;;;4.23;2.00;;;;;;;;;;5063516;28;20569;-62
2023/08/10 05:51:05;;;;;;;4.43;2.10;;;;;;;;;;5059644;28;20695;-65
2023/08/10 05:53:30;;;;;;;5.37;2.13;;;;;;;;;;5070713;28;20032;-64
2023/08/10 05:55:56;;;;;;;3.15;1.98;;;;;;;;;;5071213;28;20081;-61
2023/08/10 05:58:21;;;;;;;4.10;2.23;;;;;;;;;;5072484;28;20048;-63
2023/08/10 06:00:46;;;;;;;4.25;2.55;;;;;;;;;;5067871;28;20285;-65
2023/08/10 06:03:12;;;;;;;4.18;1.98;;;;;;;;;;5064713;28;20063;-63
2023/08/10 06:05:37;;;;;;;4.47;2.10;;;;;;;;;;5067714;28;20037;-63
2023/08/10 06:08:02;;;;;;;4.50;2.30;;;;;;;;;;5067321;28;20792;-62
2023/08/10 06:10:28;;;;;;;2.92;1.88;;;;;;;;;;5058411;28;20029;-62
2023/08/10 06:12:53;;;;;;;3.50;1.90;;;;;;;;;;5055655;28;20048;-62
2023/08/10 06:15:18;;;;;;;3.55;2.00;;;;;;;;;;5060553;28;20036;-60
2023/08/10 06:17:44;;;;;;;5.07;2.15;;;;;;;;;;5058124;28;20471;-63
2023/08/10 06:20:09;;;;;;;4.72;1.75;;;;;;;;;;5059301;28;20067;-62
2023/08/10 06:22:38;;;;;;;5.22;1.67;;;;;;;;;;5038478;28;20498;-60
2023/08/10 06:25:04;;;;;;;3.05;1.95;;;;;;;;;;5067769;28;20120;-62
2023/08/10 06:27:30;;;;;;;5.45;1.55;;;;;;;;;;5067831;28;20627;-62
2023/08/10 06:29:55;;;;;;;5.28;1.85;;;;;;;;;;5066456;28;20025;-61
2023/08/10 06:32:21;;;;;;;3.20;1.83;;;;;;;;;;5067914;28;20139;-61
2023/08/10 06:34:47;;;;;;;4.82;1.98;;;;;;;;;;5049585;28;20271;-61
2023/08/10 06:37:15;;;;;;;3.55;1.85;;;;;;;;;;5065324;28;20449;-63
2023/08/10 06:39:41;;;;;;;2.70;1.73;;;;;;;;;;5068464;28;20417;-61
2023/08/10 06:42:06;;;;;;;3.97;1.98;;;;;;;;;;5066512;28;20029;-63
2023/08/10 06:44:31;;;;;;;3.73;1.90;;;;;;;;;;5064416;28;20033;-61
2023/08/10 06:46:56;;;;;;;5.93;2.00;;;;;;;;;;5050243;28;20363;-61
2023/08/10 06:49:23;;;;;;;3.85;1.92;;;;;;;;;;5066032;28;20032;-59
2023/08/10 06:51:49;;;;;;;5.03;1.92;;;;;;;;;;5055471;28;20543;-62
2023/08/10 06:54:14;;;;;;;3.00;1.70;;;;;;;;;;5062649;28;20033;-63
2023/08/10 06:56:40;;;;;;;4.37;2.13;;;;;;;;;;5065698;28;20533;-61
2023/08/10 06:59:05;;;;;;;4.73;2.20;;;;;;;;;;5058924;28;20302;-63
2023/08/10 07:01:30;;;;;;;4.60;2.10;;;;;;;;;;5063971;28;20353;-63
2023/08/10 07:03:56;;;;;;;3.80;2.28;;;;;;;;;;5066000;28;20054;-59
2023/08/10 07:06:21;;;;;;;4.50;2.50;;;;;;;;;;5061199;28;20383;-60
2023/08/10 07:08:47;;;;;;;3.95;2.35;;;;;;;;;;5060276;28;20283;-60
2023/08/10 07:11:13;;;;;;;3.00;2.10;;;;;;;;;;5062484;28;20047;-59
2023/08/10 07:13:38;;;;;;;5.90;2.33;;;;;;;;;;5044074;28;20036;-60
2023/08/10 07:16:03;;;;;;;2.87;2.03;;;;;;;;;;5060963;28;20036;-60
2023/08/10 07:18:29;;;;;;;3.67;2.30;;;;;;;;;;5059124;28;20299;-59
2023/08/10 07:20:55;;;;;;;3.73;2.40;;;;;;;;;;5055153;28;20090;-60
2023/08/10 07:23:21;;;;;;;2.95;1.80;;;;;;;;;;5053376;28;20286;-61
2023/08/10 07:25:46;;;;;;;5.22;2.00;;;;;;;;;;5059465;28;20111;-60
2023/08/10 07:28:12;;;;;;;4.53;2.10;;;;;;;;;;5062094;28;20464;-59
2023/08/10 07:30:37;;;;;;;5.78;2.05;;;;;;;;;;5062976;28;20035;-62
2023/08/10 07:33:02;;;;;;;3.22;1.80;;;;;;;;;;5055257;28;20395;-62
2023/08/10 07:35:28;;;;;;;3.28;1.90;;;;;;;;;;5057498;28;20053;-61
2023/08/10 07:37:53;;;;;;;3.30;1.95;;;;;;;;;;5040409;28;20033;-60
2023/08/10 07:40:18;;;;;;;3.42;1.63;;;;;;;;;;5055169;28;20036;-59
2023/08/10 07:42:44;;;;;;;3.20;1.80;;;;;;;;;;5060137;28;20040;-61
2023/08/10 07:45:09;;;;;;;4.40;1.90;;;;;;;;;;5053108;28;20301;-60
2023/08/10 07:47:35;;;;;;;3.45;1.60;;;;;;;;;;5057351;28;20033;-59
2023/08/10 07:50:00;;;;;;;2.55;1.67;;;;;;;;;;5054558;28;20037;-60
2023/08/10 07:52:25;;;;;;;3.40;1.87;;;;;;;;;;5053505;28;20024;-60
2023/08/10 07:54:50;;;;;;;3.97;1.67;;;;;;;;;;5059658;28;20375;-61
2023/08/10 07:57:16;;;;;;;2.10;1.47;;;;;;;;;;5053938;28;20659;-59
2023/08/10 07:59:41;;;;;;;5.63;1.70;;;;;;;;;;5054977;28;20397;-60
2023/08/10 08:02:06;;;;;;;3.55;1.60;;;;;;;;;;5053952;28;20037;-61
2023/08/10 08:04:31;;;;;;;5.23;1.70;;;;;;;;;;5053147;28;20451;-62
2023/08/10 08:06:57;;;;;;;2.50;1.63;;;;;;;;;;5061900;28;20661;-61
2023/08/10 08:09:22;;;;;;;2.17;1.67;;;;;;;;;;5052966;28;20660;-61
2023/08/10 08:11:48;;;;;;;3.22;1.73;;;;;;;;;;5054998;28;20511;-62
2023/08/10 08:14:13;;;;;;;2.70;1.80;;;;;;;;;;5056631;28;20044;-63
2023/08/10 08:16:38;;;;;;;2.88;1.30;;;;;;;;;;5050331;28;20032;-60
2023/08/10 08:19:04;;;;;;;2.33;1.60;;;;;;;;;;5054215;28;20572;-59
2023/08/10 08:21:29;;;;;;;2.83;1.57;;;;;;;;;;5052916;28;20275;-60
2023/08/10 08:23:55;;;;;;;3.47;1.73;;;;;;;;;;5055119;28;20025;-60
2023/08/10 08:26:20;;;;;;;2.25;1.50;;;;;;;;;;5063058;28;20041;-59
2023/08/10 08:28:46;;;;;;;3.60;1.60;;;;;;;;;;5053980;28;20108;-59
2023/08/10 08:31:11;;;;;;;3.10;1.40;;;;;;;;;;5055234;28;20059;-60
2023/08/10 08:33:37;;;;;;;2.83;1.38;;;;;;;;;;5049827;28;20414;-61
2023/08/10 08:36:02;;;;;;;2.55;1.77;;;;;;;;;;5049169;28;20048;-61
2023/08/10 08:38:29;;;;;;;3.22;1.83;;;;;;;;;;5049804;28;20115;-60
2023/08/10 08:40:55;;;;;;;4.53;2.00;;;;;;;;;;5049992;28;20028;-61
2023/08/10 08:43:20;;;;;;;3.17;1.60;;;;;;;;;;5050140;28;20114;-62
2023/08/10 08:45:46;;;;;;;2.92;1.70;;;;;;;;;;5050331;28;20052;-60
2023/08/10 08:48:14;;;;;;;2.78;1.60;;;;;;;;;;5030943;28;20060;-60
2023/08/10 08:50:40;;;;;;;2.55;1.25;;;;;;;;;;5050844;28;20048;-60
2023/08/10 08:53:06;;;;;;;4.10;1.50;;;;;;;;;;5049469;28;20086;-59
2023/08/10 08:55:31;;;;;;;2.58;1.50;;;;;;;;;;5050247;28;20119;-60
2023/08/10 08:57:56;;;;;;;2.50;1.60;;;;;;;;;;5052823;28;20021;-62
2023/08/10 09:00:22;;;;;;;2.60;1.70;;;;;;;;;;5049370;28;20108;-60
2023/08/10 09:02:47;;;;;;;3.25;1.65;;;;;;;;;;5048049;28;20291;-65
2023/08/10 09:05:12;;;;;;;3.10;1.90;;;;;;;;;;5047731;28;20568;-64
2023/08/10 09:07:38;;;;;;;2.60;1.97;;;;;;;;;;5047280;28;20293;-64
2023/08/10 09:10:03;;;;;;;2.47;1.83;;;;;;;;;;5049685;28;20356;-64
2023/08/10 09:12:29;;;;;;;3.40;1.80;;;;;;;;;;5050778;28;20040;-61
2023/08/10 09:15:04;;;;;;;3.92;1.90;;;;;;;;;;5051119;28;20056;-61
2023/08/10 09:17:30;;;;;;;7.97;2.42;;;;;;;;;;5051021;28;20072;-63
2023/08/10 09:19:55;;;;;;;2.65;2.10;;;;;;;;;;5051089;28;20084;-62
2023/08/10 09:22:29;;;;;;;2.80;2.17;;;;;;;;;;5046838;28;20033;-61
2023/08/10 09:24:55;;;;;;;3.65;2.00;;;;;;;;;;5050897;28;20279;-62
2023/08/10 09:27:20;;;;;;;2.67;1.77;;;;;;;;;;5049541;28;20056;-61
2023/08/10 09:29:45;;;;;;;5.07;1.87;;;;;;;;;;5050254;28;20934;-61
2023/08/10 09:32:16;;;;;;;4.35;2.00;;;;;;;;;;5050173;28;20045;-62
2023/08/10 09:34:43;;;;;;;2.90;2.03;;;;;;;;;;5050025;28;20520;-61
2023/08/10 09:37:09;;;;;;;2.72;2.00;;;;;;;;;;5050377;28;20049;-61
2023/08/10 09:39:34;;;;;;;3.50;2.20;;;;;;;;;;5052930;28;20408;-63
2023/08/10 09:41:59;;;;;;;4.43;2.70;;;;;;;;;;5049532;28;20036;-61
2023/08/10 09:44:24;;;;;;;4.37;2.67;;;;;;;;;;5048666;28;20472;-62
2023/08/10 09:46:58;;;;;;;5.35;2.33;;;;;;;;;;5049646;28;20486;-61
2023/08/10 09:49:23;;;;;;;3.70;2.13;;;;;;;;;;5048416;28;20094;-63
2023/08/10 09:51:48;;;;;;;2.90;2.00;;;;;;;;;;5048529;28;20504;-62
2023/08/10 09:54:13;;;;;;;2.93;1.97;;;;;;;;;;5054495;28;20443;-63
2023/08/10 09:56:38;;;;;;;3.30;2.27;;;;;;;;;;5050149;28;20291;-61
2023/08/10 09:59:05;;;;;;;3.30;1.80;;;;;;;;;;5049466;28;20033;-63
2023/08/10 10:01:30;;;;;;;3.50;2.10;;;;;;;;;;5053633;28;20142;-62
2023/08/10 10:03:55;;;;;;;4.30;2.60;;;;;;;;;;5054987;28;20422;-62
2023/08/10 10:06:20;;;;;;;2.65;1.88;;;;;;;;;;5049525;28;20051;-61
2023/08/10 10:08:51;;;;;;;4.03;1.90;;;;;;;;;;5049856;28;20032;-62
2023/08/10 10:11:16;;;;;;;4.93;2.30;;;;;;;;;;5048152;28;20048;-62
2023/08/10 10:13:42;;;;;;;3.55;1.95;;;;;;;;;;5030417;28;20041;-63
2023/08/10 10:16:07;;;;;;;4.00;1.93;;;;;;;;;;5050628;28;20552;-60
2023/08/10 10:18:35;;;;;;;3.97;2.00;;;;;;;;;;5052392;28;20287;-61
2023/08/10 10:21:00;;;;;;;3.35;2.90;;;;;;;;;;5052160;28;20295;-61
2023/08/10 10:23:28;;;;;;;3.07;2.50;;;;;;;;;;5052683;28;20481;-61
2023/08/10 10:26:03;;;;;;;4.47;2.75;;;;;;;;;;5052556;28;20186;-61
2023/08/10 10:28:30;;;;;;;3.67;2.28;;;;;;;;;;5055898;28;20527;-63
2023/08/10 10:31:17;;;;;;;4.93;2.90;;;;;;;;;;5051541;28;20013;-63
2023/08/10 10:33:55;;;;;;;2.90;2.00;;;;;;;;;;5052259;28;20510;-62
2023/08/10 10:36:20;;;;;;;4.18;1.90;;;;;;;;;;5054678;28;20101;-61
2023/08/10 10:38:50;;;;;;;3.78;2.10;;;;;;;;;;5034751;28;20147;-62
2023/08/10 10:41:16;;;;;;;5.35;2.08;;;;;;;;;;5037438;28;20915;-64
2023/08/10 10:43:44;;;;;;;3.30;1.92;;;;;;;;;;5052560;28;20044;-63
2023/08/10 10:46:15;;;;;;;1.80;1.40;;;;;;;;;;5050804;28;20273;-63
2023/08/10 10:48:40;;;;;;;2.22;1.20;;;;;;;;;;5051698;28;20052;-62
2023/08/10 10:51:06;;;;;;;2.63;1.45;;;;;;;;;;5052342;28;20082;-61
2023/08/10 10:53:32;;;;;;;2.58;1.70;;;;;;;;;;5052302;28;20059;-61
2023/08/10 10:55:58;;;;;;;3.10;1.52;;;;;;;;;;5050664;28;20418;-63
2023/08/10 10:58:25;;;;;;;3.23;1.60;;;;;;;;;;5051986;28;20037;-64
2023/08/10 11:00:50;;;;;;;3.47;1.80;;;;;;;;;;5038453;28;20357;-61
2023/08/10 11:03:17;;;;;;;3.13;1.57;;;;;;;;;;5052121;28;20037;-64
2023/08/10 11:05:43;;;;;;;3.35;1.80;;;;;;;;;;5050839;28;20310;-64
2023/08/10 11:08:08;;;;;;;2.27;1.60;;;;;;;;;;5051726;28;20045;-61
2023/08/10 11:10:35;;;;;;;3.00;1.50;;;;;;;;;;5052111;28;20044;-61
2023/08/10 11:13:00;;;;;;;2.80;1.85;;;;;;;;;;5052630;28;20040;-61
2023/08/10 11:15:26;;;;;;;2.55;1.70;;;;;;;;;;5032580;28;20470;-61
2023/08/10 11:17:53;;;;;;;3.50;1.70;;;;;;;;;;5048402;28;20043;-63
2023/08/10 11:20:20;;;;;;;3.83;1.88;;;;;;;;;;5049629;28;20041;-62
2023/08/10 11:22:46;;;;;;;2.92;2.00;;;;;;;;;;5050552;28;20425;-61
2023/08/10 11:25:12;;;;;;;3.33;1.80;;;;;;;;;;5048853;28;20522;-62
2023/08/10 11:27:56;;;;;;;4.93;1.52;;;;;;;;;;5048188;28;20313;-61
2023/08/10 11:30:22;;;;;;;2.75;1.50;;;;;;;;;;5050039;28;20048;-59
2023/08/10 11:32:48;;;;;;;3.30;1.52;;;;;;;;;;5050016;28;20418;-60
2023/08/10 11:35:15;;;;;;;2.85;1.50;;;;;;;;;;5049050;28;20200;-59
2023/08/10 11:37:41;;;;;;;3.15;1.40;;;;;;;;;;5048848;28;20037;-60
2023/08/10 11:40:09;;;;;;;2.97;1.90;;;;;;;;;;5048812;28;20041;-60
2023/08/10 11:42:35;;;;;;;3.40;1.45;;;;;;;;;;5048990;28;20148;-59
2023/08/10 11:45:01;;;;;;;2.05;1.20;;;;;;;;;;5032131;28;20049;-60
2023/08/10 11:47:28;;;;;;;3.88;1.30;;;;;;;;;;5050524;28;20505;-61
2023/08/10 11:49:53;;;;;;;2.58;1.60;;;;;;;;;;5049422;28;20072;-60
2023/08/10 11:52:18;;;;;;;4.72;1.42;;;;;;;;;;5051407;28;20491;-59
2023/08/10 11:54:49;;;;;;;3.07;1.50;;;;;;;;;;5053775;28;20474;-59
2023/08/10 11:57:14;;;;;;;2.28;1.15;;;;;;;;;;5063895;28;20037;-60
2023/08/10 11:59:40;;;;;;;1.60;1.10;;;;;;;;;;5063306;28;20494;-63
2023/08/10 12:02:07;;;;;;;2.47;1.08;;;;;;;;;;5054009;28;20088;-61
2023/08/10 12:04:33;;;;;;;1.48;1.13;;;;;;;;;;5042235;28;20554;-61
2023/08/10 12:06:58;;;;;;;1.95;0.85;;;;;;;;;;5059349;28;20143;-62
2023/08/10 12:09:25;;;;;;;3.67;1.20;;;;;;;;;;5055149;28;20126;-61
2023/08/10 12:11:50;;;;;;;2.58;1.00;;;;;;;;;;5052288;28;20724;-62
2023/08/10 12:14:17;;;;;;;1.33;0.80;;;;;;;;;;5059275;28;20528;-60
2023/08/10 12:16:44;;;;;;;1.50;0.85;;;;;;;;;;5062551;28;20028;-61
2023/08/10 12:19:10;;;;;;;2.45;1.10;;;;;;;;;;5064969;28;20062;-61
2023/08/10 12:21:35;;;;;;;3.35;1.35;;;;;;;;;;5062962;28;20036;-61
2023/08/10 12:24:01;;;;;;;1.45;1.00;;;;;;;;;;5050627;28;20040;-59
2023/08/10 12:26:26;;;;;;;1.50;1.10;;;;;;;;;;5059727;28;20045;-60
2023/08/10 12:28:51;;;;;;;1.65;1.02;;;;;;;;;;5061529;28;20403;-65
2023/08/10 12:31:17;;;;;;;1.30;0.90;;;;;;;;;;5059789;28;20505;-65
2023/08/10 12:33:42;;;;;;;1.38;0.80;;;;;;;;;;5057353;28;20040;-62
2023/08/10 12:36:07;;;;;;;1.13;0.80;;;;;;;;;;5063608;28;20143;-62
2023/08/10 12:38:33;;;;;;;1.48;0.80;;;;;;;;;;5063699;28;20103;-62
2023/08/10 12:40:58;;;;;;;2.50;1.00;;;;;;;;;;5063981;28;20185;-60
2023/08/10 12:43:23;;;;;;;1.30;0.63;;;;;;;;;;5064720;28;20052;-61
2023/08/10 12:45:49;;;;;;;1.90;0.82;;;;;;;;;;5064046;28;20597;-62
2023/08/10 12:48:14;;;;;;;2.22;0.63;;;;;;;;;;5063570;28;20039;-60
2023/08/10 12:50:39;;;;;;;0.80;0.50;;;;;;;;;;5064149;28;20040;-59
2023/08/10 12:53:05;;;;;;;0.90;0.65;;;;;;;;;;5047896;28;20035;-60
2023/08/10 12:55:30;;;;;;;1.80;0.75;;;;;;;;;;5047051;28;20036;-61
2023/08/10 12:57:56;;;;;;;1.30;0.70;;;;;;;;;;5064549;28;20072;-61
2023/08/10 13:00:21;;;;;;;1.63;0.70;;;;;;;;;;5064032;28;20032;-61
2023/08/10 13:02:47;;;;;;;1.63;0.60;;;;;;;;;;5046380;28;20037;-63
2023/08/10 13:05:12;;;;;;;2.28;0.63;;;;;;;;;;5045581;28;20127;-61
2023/08/10 13:07:38;;;;;;;1.20;0.80;;;;;;;;;;5035129;28;20032;-59
2023/08/10 13:10:03;;;;;;;1.40;0.68;;;;;;;;;;5063118;28;20029;-62
2023/08/10 13:12:29;;;;;;;1.00;0.63;;;;;;;;;;5064402;28;20051;-62
2023/08/10 13:14:54;;;;;;;0.90;0.70;;;;;;;;;;5064585;28;20111;-61
2023/08/10 13:17:19;;;;;;;1.02;0.68;;;;;;;;;;5064650;28;20044;-59
2023/08/10 13:19:45;;;;;;;2.25;0.50;;;;;;;;;;5064408;28;20032;-60
2023/08/10 13:22:10;;;;;;;1.50;0.60;;;;;;;;;;5064060;28;20037;-61
2023/08/10 13:24:36;;;;;;;1.10;0.70;;;;;;;;;;5062006;28;20041;-61
2023/08/10 13:27:04;;;;;;;2.40;0.90;;;;;;;;;;5065805;28;20560;-61
2023/08/10 13:29:29;;;;;;;1.05;0.60;;;;;;;;;;5061938;28;20504;-62
2023/08/10 13:31:55;;;;;;;2.67;0.80;;;;;;;;;;5061153;28;20123;-63
2023/08/10 13:34:20;;;;;;;1.87;1.10;;;;;;;;;;5063422;28;20783;-61
2023/08/10 13:36:45;;;;;;;1.40;0.90;;;;;;;;;;5063637;28;20357;-62
2023/08/10 13:39:10;;;;;;;2.60;0.97;;;;;;;;;;5036085;28;20387;-60
2023/08/10 13:41:36;;;;;;;3.70;1.10;;;;;;;;;;5063818;28;20075;-62
2023/08/10 13:44:02;;;;;;;2.45;0.90;;;;;;;;;;5063452;28;20033;-63
2023/08/10 13:46:27;;;;;;;3.20;1.02;;;;;;;;;;5063110;28;20044;-61
2023/08/10 13:48:53;;;;;;;1.53;0.83;;;;;;;;;;5063975;28;20036;-63
2023/08/10 13:51:19;;;;;;;1.42;0.85;;;;;;;;;;5064943;28;20442;-62
2023/08/10 13:53:44;;;;;;;1.40;0.82;;;;;;;;;;5065190;28;20380;-64
2023/08/10 13:56:09;;;;;;;2.23;1.00;;;;;;;;;;5066834;28;20047;-62
2023/08/10 13:58:34;;;;;;;1.37;0.90;;;;;;;;;;5049151;28;20807;-61
2023/08/10 14:00:59;;;;;;;2.23;1.17;;;;;;;;;;5067248;28;20513;-61
2023/08/10 14:03:25;;;;;;;1.67;0.80;;;;;;;;;;5067040;28;20324;-60
2023/08/10 14:05:51;;;;;;;1.57;0.90;;;;;;;;;;5066903;28;20652;-61
2023/08/10 14:08:17;;;;;;;1.25;0.80;;;;;;;;;;5048148;28;20450;-61
2023/08/10 14:10:42;;;;;;;1.60;0.82;;;;;;;;;;5066294;28;20365;-68
2023/08/10 14:13:07;;;;;;;1.80;0.90;;;;;;;;;;5066752;28;20055;-72
2023/08/10 14:15:32;;;;;;;1.43;0.70;;;;;;;;;;5067079;28;20036;-65
2023/08/10 14:17:58;;;;;;;3.07;0.80;;;;;;;;;;5049154;28;20020;-63
2023/08/10 14:20:23;;;;;;;1.10;0.93;;;;;;;;;;5065019;28;20267;-65
2023/08/10 14:22:48;;;;;;;2.23;1.00;;;;;;;;;;5066435;28;20016;-60
2023/08/10 14:25:13;;;;;;;2.13;0.90;;;;;;;;;;5066531;28;20021;-61
2023/08/10 14:27:39;;;;;;;2.03;0.90;;;;;;;;;;5066836;28;20269;-62
2023/08/10 14:30:04;;;;;;;3.47;1.10;;;;;;;;;;5065992;28;20063;-62
2023/08/10 14:32:29;;;;;;;1.70;0.93;;;;;;;;;;5066766;28;20787;-62
2023/08/10 14:34:54;;;;;;;1.40;0.80;;;;;;;;;;5033054;28;20103;-63